Time;durP1;ratioP1;P1;durP2;ratioP2;P2;SDS_P1;SDS_P2;PMS_P1;PMS_P2;Temp;Humidity;BMP_temperature;BMP_pressure;BME280_temperature;BME280_humidity;BME280_pressure;Samples;Min_cycle;Max_cycle;Signal;HPM_P1;HPM_P2
2023/07/17 00:01:08;;;;;;;6.05;2.65;;;;;;;;;;4990058;28;20030;-74
2023/07/17 00:03:34;;;;;;;5.13;2.17;;;;;;;;;;4990300;28;20018;-74
2023/07/17 00:06:00;;;;;;;4.15;1.80;;;;;;;;;;4991053;28;20030;-73
2023/07/17 00:08:26;;;;;;;7.38;2.40;;;;;;;;;;4990614;28;20037;-73
2023/07/17 00:10:55;;;;;;;8.25;2.50;;;;;;;;;;4991061;28;20400;-73
2023/07/17 00:13:21;;;;;;;6.50;3.40;;;;;;;;;;4991049;28;20038;-73
2023/07/17 00:15:47;;;;;;;5.80;2.30;;;;;;;;;;4991604;28;20033;-73
2023/07/17 00:18:13;;;;;;;9.18;2.83;;;;;;;;;;4990592;28;20034;-73
2023/07/17 00:20:41;;;;;;;4.70;2.45;;;;;;;;;;4990901;28;20045;-73
2023/07/17 00:23:07;;;;;;;8.05;2.75;;;;;;;;;;4973557;28;20451;-73
2023/07/17 00:25:33;;;;;;;6.55;2.30;;;;;;;;;;4990791;28;20484;-73
2023/07/17 00:28:00;;;;;;;6.35;2.83;;;;;;;;;;4990629;28;20480;-73
2023/07/17 00:30:26;;;;;;;7.22;2.90;;;;;;;;;;4990632;28;20050;-73
2023/07/17 00:32:52;;;;;;;6.07;3.30;;;;;;;;;;4990542;28;20512;-72
2023/07/17 00:35:18;;;;;;;8.90;3.42;;;;;;;;;;4990619;28;20027;-73
2023/07/17 00:37:45;;;;;;;7.95;3.47;;;;;;;;;;4990593;28;20019;-73
2023/07/17 00:40:12;;;;;;;6.00;2.63;;;;;;;;;;4990373;28;20027;-73
2023/07/17 00:42:38;;;;;;;9.80;3.15;;;;;;;;;;4990753;28;20030;-71
2023/07/17 00:45:05;;;;;;;8.00;2.97;;;;;;;;;;4989704;28;20049;-72
2023/07/17 00:47:31;;;;;;;6.63;2.83;;;;;;;;;;4972267;28;20029;-73
2023/07/17 00:49:57;;;;;;;11.20;3.92;;;;;;;;;;4990256;28;20061;-72
2023/07/17 00:52:23;;;;;;;11.10;3.90;;;;;;;;;;4990140;28;20031;-72
2023/07/17 00:54:51;;;;;;;6.97;3.53;;;;;;;;;;4990541;28;20023;-72
2023/07/17 00:57:17;;;;;;;7.10;3.15;;;;;;;;;;4990779;28;20101;-72
2023/07/17 00:59:44;;;;;;;8.32;3.17;;;;;;;;;;4989797;28;20023;-72
2023/07/17 01:02:10;;;;;;;8.63;4.20;;;;;;;;;;4990105;28;20532;-71
2023/07/17 01:04:37;;;;;;;9.43;3.13;;;;;;;;;;4990315;28;20037;-72
2023/07/17 01:07:03;;;;;;;8.30;3.85;;;;;;;;;;4990041;28;20409;-72
2023/07/17 01:09:30;;;;;;;7.57;3.42;;;;;;;;;;4989943;28;20026;-72
2023/07/17 01:11:55;;;;;;;10.45;4.10;;;;;;;;;;4989722;28;20037;-72
2023/07/17 01:14:21;;;;;;;7.38;3.50;;;;;;;;;;4990682;28;20042;-72
2023/07/17 01:16:48;;;;;;;9.57;4.10;;;;;;;;;;4990553;28;20037;-72
2023/07/17 01:19:15;;;;;;;7.78;3.40;;;;;;;;;;4990250;28;20065;-73
2023/07/17 01:21:53;;;;;;;8.60;4.15;;;;;;;;;;4990149;28;20038;-72
2023/07/17 01:24:19;;;;;;;9.05;3.88;;;;;;;;;;4989982;28;20018;-72
2023/07/17 01:26:46;;;;;;;8.80;3.90;;;;;;;;;;4989675;28;20050;-72
2023/07/17 01:29:12;;;;;;;13.02;4.50;;;;;;;;;;4972193;28;20038;-72
2023/07/17 01:31:39;;;;;;;8.30;3.95;;;;;;;;;;4990154;28;20073;-72
2023/07/17 01:34:06;;;;;;;6.80;3.33;;;;;;;;;;4989866;28;20042;-72
2023/07/17 01:36:32;;;;;;;9.27;3.20;;;;;;;;;;4989628;28;20065;-72
2023/07/17 01:38:58;;;;;;;10.68;4.25;;;;;;;;;;4971613;28;20178;-72
2023/07/17 01:41:24;;;;;;;10.38;4.50;;;;;;;;;;4989794;28;20030;-72
2023/07/17 01:43:50;;;;;;;7.88;3.47;;;;;;;;;;4989471;28;20440;-73
2023/07/17 01:46:16;;;;;;;7.90;4.18;;;;;;;;;;4989551;28;20030;-72
2023/07/17 01:48:42;;;;;;;6.70;3.80;;;;;;;;;;4989498;28;20152;-72
2023/07/17 01:51:08;;;;;;;8.75;3.60;;;;;;;;;;4971658;28;20057;-72
2023/07/17 01:53:34;;;;;;;9.63;4.40;;;;;;;;;;4989522;28;20073;-71
2023/07/17 01:56:00;;;;;;;9.20;4.45;;;;;;;;;;4989258;28;20026;-72
2023/07/17 01:58:26;;;;;;;9.65;3.78;;;;;;;;;;4989528;28;20062;-73
2023/07/17 02:00:54;;;;;;;7.15;4.28;;;;;;;;;;4989267;28;20135;-73
2023/07/17 02:03:20;;;;;;;10.80;4.38;;;;;;;;;;4989946;28;20031;-74
2023/07/17 02:05:46;;;;;;;11.10;4.43;;;;;;;;;;4989579;28;20854;-73
2023/07/17 02:08:12;;;;;;;9.77;4.47;;;;;;;;;;4989093;28;20026;-73
2023/07/17 02:10:45;;;;;;;10.93;4.20;;;;;;;;;;4989505;28;20053;-72
2023/07/17 02:13:11;;;;;;;10.27;4.45;;;;;;;;;;4971974;28;20041;-73
2023/07/17 02:15:37;;;;;;;10.82;4.57;;;;;;;;;;4989277;28;20030;-73
2023/07/17 02:18:03;;;;;;;10.77;4.10;;;;;;;;;;4971382;28;20027;-72
2023/07/17 02:20:29;;;;;;;11.23;5.28;;;;;;;;;;4989122;28;20026;-72
2023/07/17 02:22:57;;;;;;;9.85;4.95;;;;;;;;;;4990205;28;20022;-71
2023/07/17 02:25:23;;;;;;;12.57;4.90;;;;;;;;;;4993089;28;20054;-72
2023/07/17 02:27:49;;;;;;;9.05;4.82;;;;;;;;;;4993176;28;20124;-72
2023/07/17 02:30:18;;;;;;;9.57;4.57;;;;;;;;;;4992630;28;20492;-73
2023/07/17 02:32:44;;;;;;;9.95;4.43;;;;;;;;;;4992683;28;20439;-73
2023/07/17 02:35:10;;;;;;;7.55;3.78;;;;;;;;;;4992924;28;20369;-73
2023/07/17 02:37:36;;;;;;;12.55;4.90;;;;;;;;;;4975223;28;20030;-72
2023/07/17 02:40:11;;;;;;;10.15;4.57;;;;;;;;;;4992701;28;20132;-73
2023/07/17 02:42:37;;;;;;;7.32;4.10;;;;;;;;;;4992273;28;20026;-73
2023/07/17 02:45:04;;;;;;;11.60;4.50;;;;;;;;;;4992733;28;20149;-72
2023/07/17 02:47:30;;;;;;;9.32;4.22;;;;;;;;;;4992716;28;20027;-73
2023/07/17 02:49:56;;;;;;;9.77;4.15;;;;;;;;;;4992689;28;20026;-73
2023/07/17 02:52:22;;;;;;;11.32;5.03;;;;;;;;;;4992350;28;20034;-73
2023/07/17 02:54:48;;;;;;;8.50;4.25;;;;;;;;;;4992635;28;20202;-72
2023/07/17 02:57:16;;;;;;;13.63;5.32;;;;;;;;;;4992216;28;20027;-73
2023/07/17 02:59:42;;;;;;;12.10;4.20;;;;;;;;;;4992608;28;20030;-72
2023/07/17 03:02:08;;;;;;;11.25;5.25;;;;;;;;;;4992223;28;20037;-72
2023/07/17 03:04:34;;;;;;;10.38;4.22;;;;;;;;;;4974940;28;20428;-72
2023/07/17 03:07:00;;;;;;;11.48;4.95;;;;;;;;;;4974830;28;20030;-73
2023/07/17 03:09:27;;;;;;;13.25;5.43;;;;;;;;;;4991896;28;20023;-71
2023/07/17 03:11:53;;;;;;;10.48;4.47;;;;;;;;;;4992202;28;20022;-72
2023/07/17 03:14:19;;;;;;;11.82;5.70;;;;;;;;;;4992435;28;20038;-71
2023/07/17 03:16:45;;;;;;;12.20;5.30;;;;;;;;;;4992367;28;20113;-72
2023/07/17 03:19:11;;;;;;;11.00;6.20;;;;;;;;;;4992353;28;20033;-73
2023/07/17 03:21:37;;;;;;;8.68;4.80;;;;;;;;;;4991869;28;20031;-72
2023/07/17 03:24:04;;;;;;;7.72;4.43;;;;;;;;;;4991715;28;21005;-72
2023/07/17 03:26:30;;;;;;;12.68;4.93;;;;;;;;;;4992388;28;20033;-73
2023/07/17 03:28:56;;;;;;;14.77;4.78;;;;;;;;;;4992000;28;20050;-71
2023/07/17 03:31:22;;;;;;;12.02;4.82;;;;;;;;;;4991825;28;20031;-71
2023/07/17 03:33:48;;;;;;;8.05;4.63;;;;;;;;;;4990683;28;20046;-70
2023/07/17 03:36:14;;;;;;;10.90;4.60;;;;;;;;;;4991596;28;20030;-71
2023/07/17 03:38:40;;;;;;;7.60;3.83;;;;;;;;;;4991728;28;20157;-73
2023/07/17 03:41:06;;;;;;;15.73;5.03;;;;;;;;;;4991332;28;20142;-71
2023/07/17 03:43:32;;;;;;;10.55;4.50;;;;;;;;;;4991483;28;20053;-72
2023/07/17 03:45:59;;;;;;;9.65;4.32;;;;;;;;;;4974098;28;20026;-71
2023/07/17 03:48:25;;;;;;;9.02;4.65;;;;;;;;;;4992043;28;20044;-72
2023/07/17 03:50:51;;;;;;;9.57;4.43;;;;;;;;;;4991903;28;20103;-70
2023/07/17 03:53:17;;;;;;;8.02;3.70;;;;;;;;;;4974322;28;20042;-71
2023/07/17 03:55:43;;;;;;;11.27;4.72;;;;;;;;;;4991905;28;20608;-71
2023/07/17 03:58:09;;;;;;;10.65;4.78;;;;;;;;;;4991481;28;20082;-70
2023/07/17 04:00:35;;;;;;;9.70;4.40;;;;;;;;;;4973820;28;20031;-70
2023/07/17 04:03:04;;;;;;;11.68;4.70;;;;;;;;;;4991311;28;20034;-71
2023/07/17 04:05:30;;;;;;;7.60;4.33;;;;;;;;;;4991337;28;20031;-70
2023/07/17 04:07:58;;;;;;;8.10;3.63;;;;;;;;;;4990968;28;20030;-70
2023/07/17 04:10:27;;;;;;;12.23;4.70;;;;;;;;;;4974365;28;20408;-70
2023/07/17 04:12:53;;;;;;;11.98;4.93;;;;;;;;;;4990915;28;20034;-70
2023/07/17 04:15:19;;;;;;;9.95;5.50;;;;;;;;;;4990803;28;20121;-71
2023/07/17 04:17:45;;;;;;;10.00;4.97;;;;;;;;;;4990875;28;20026;-72
2023/07/17 04:20:11;;;;;;;10.10;4.78;;;;;;;;;;4991078;28;20041;-72
2023/07/17 04:22:37;;;;;;;9.50;5.00;;;;;;;;;;4973282;28;20054;-72
2023/07/17 04:25:03;;;;;;;11.13;5.15;;;;;;;;;;4991043;28;20069;-72
2023/07/17 04:27:30;;;;;;;9.38;4.38;;;;;;;;;;4990235;28;20032;-72
2023/07/17 04:29:56;;;;;;;14.13;5.07;;;;;;;;;;4991130;28;20456;-72
2023/07/17 04:32:22;;;;;;;10.93;4.88;;;;;;;;;;4990954;28;20096;-72
2023/07/17 04:34:48;;;;;;;12.88;4.53;;;;;;;;;;4990654;28;20030;-73
2023/07/17 04:37:14;;;;;;;11.93;5.60;;;;;;;;;;4990466;28;20034;-70
2023/07/17 04:39:40;;;;;;;13.27;5.20;;;;;;;;;;4990578;28;20139;-71
2023/07/17 04:42:06;;;;;;;12.40;5.07;;;;;;;;;;4990989;28;20133;-72
2023/07/17 04:44:32;;;;;;;11.90;5.20;;;;;;;;;;4990392;28;20504;-72
2023/07/17 04:46:58;;;;;;;13.02;4.90;;;;;;;;;;4990301;28;20065;-71
2023/07/17 04:49:24;;;;;;;11.35;4.55;;;;;;;;;;4990275;28;20058;-71
2023/07/17 04:51:50;;;;;;;14.02;5.95;;;;;;;;;;4990112;28;20030;-72
2023/07/17 04:54:16;;;;;;;15.00;5.65;;;;;;;;;;4990132;28;20069;-70
2023/07/17 04:56:42;;;;;;;10.95;5.15;;;;;;;;;;4990488;28;20058;-70
2023/07/17 04:59:08;;;;;;;12.45;4.88;;;;;;;;;;4989640;28;20031;-71
2023/07/17 05:01:34;;;;;;;13.43;5.65;;;;;;;;;;4990415;28;20041;-71
2023/07/17 05:04:00;;;;;;;12.20;4.60;;;;;;;;;;4990357;28;20033;-70
2023/07/17 05:06:26;;;;;;;12.80;4.63;;;;;;;;;;4990443;28;20026;-70
2023/07/17 05:08:52;;;;;;;14.55;5.70;;;;;;;;;;4990190;28;20089;-71
2023/07/17 05:11:18;;;;;;;13.57;5.97;;;;;;;;;;4972146;28;20384;-72
2023/07/17 05:13:45;;;;;;;9.27;4.25;;;;;;;;;;4989769;28;20042;-72
2023/07/17 05:16:11;;;;;;;7.00;2.88;;;;;;;;;;4990014;28;20500;-72
2023/07/17 05:18:37;;;;;;;9.02;3.03;;;;;;;;;;4989737;28;20137;-72
2023/07/17 05:21:03;;;;;;;9.15;3.17;;;;;;;;;;4989625;28;20034;-73
2023/07/17 05:23:30;;;;;;;8.15;2.13;;;;;;;;;;4989888;28;20154;-73
2023/07/17 05:25:57;;;;;;;12.93;5.50;;;;;;;;;;4989805;28;20439;-73
2023/07/17 05:28:24;;;;;;;11.85;2.92;;;;;;;;;;4989199;28;20022;-74
2023/07/17 05:30:51;;;;;;;7.35;3.10;;;;;;;;;;4989715;28;20037;-73
2023/07/17 05:33:17;;;;;;;9.02;3.17;;;;;;;;;;4996107;28;20041;-73
2023/07/17 05:35:46;;;;;;;13.75;3.15;;;;;;;;;;4989377;28;20030;-73
2023/07/17 05:38:12;;;;;;;10.85;3.80;;;;;;;;;;5009131;28;20096;-73
2023/07/17 05:40:39;;;;;;;11.15;5.20;;;;;;;;;;5009420;28;20033;-71
2023/07/17 05:43:05;;;;;;;10.93;4.50;;;;;;;;;;5007897;28;20060;-72
2023/07/17 05:45:31;;;;;;;9.05;2.90;;;;;;;;;;5008930;28;20057;-74
2023/07/17 05:47:57;;;;;;;9.15;3.45;;;;;;;;;;4991370;28;20034;-74
2023/07/17 05:50:23;;;;;;;11.60;4.53;;;;;;;;;;5008615;28;20030;-72
2023/07/17 05:52:50;;;;;;;10.30;5.15;;;;;;;;;;5009056;28;20484;-73
2023/07/17 05:55:16;;;;;;;13.57;6.50;;;;;;;;;;5009347;28;20061;-72
2023/07/17 05:57:42;;;;;;;7.60;3.22;;;;;;;;;;4995928;28;20065;-72
2023/07/17 06:00:11;;;;;;;9.73;4.00;;;;;;;;;;4989791;28;20030;-74
2023/07/17 06:02:37;;;;;;;8.25;3.22;;;;;;;;;;4989957;28;20563;-71
2023/07/17 06:05:03;;;;;;;9.98;4.00;;;;;;;;;;4989815;28;20113;-70
2023/07/17 06:07:30;;;;;;;11.50;4.60;;;;;;;;;;4989056;28;20049;-71
2023/07/17 06:09:57;;;;;;;15.73;7.32;;;;;;;;;;5005048;28;20050;-72
2023/07/17 06:12:23;;;;;;;21.50;8.25;;;;;;;;;;5005844;28;20022;-71
2023/07/17 06:14:49;;;;;;;16.30;7.82;;;;;;;;;;5006969;28;20038;-72
2023/07/17 06:17:15;;;;;;;19.25;8.52;;;;;;;;;;4989243;28;20033;-73
2023/07/17 06:19:41;;;;;;;17.23;8.05;;;;;;;;;;5006960;28;20542;-73
2023/07/17 06:22:07;;;;;;;18.70;9.30;;;;;;;;;;5006980;28;20025;-73
2023/07/17 06:24:33;;;;;;;20.38;9.55;;;;;;;;;;5006319;28;20037;-74
2023/07/17 06:26:59;;;;;;;21.17;9.82;;;;;;;;;;5007134;28;20030;-74
2023/07/17 06:29:25;;;;;;;18.33;8.77;;;;;;;;;;5007368;28;20372;-71
2023/07/17 06:31:51;;;;;;;18.42;9.10;;;;;;;;;;5006967;28;20026;-73
2023/07/17 06:34:18;;;;;;;16.33;7.32;;;;;;;;;;5007054;28;20109;-71
2023/07/17 06:36:44;;;;;;;21.30;11.00;;;;;;;;;;5008097;28;20052;-73
2023/07/17 06:39:10;;;;;;;23.80;9.30;;;;;;;;;;5008428;28;20076;-72
2023/07/17 06:41:37;;;;;;;19.30;8.95;;;;;;;;;;5009166;28;20061;-73
2023/07/17 06:44:03;;;;;;;23.75;9.80;;;;;;;;;;5008543;28;20046;-74
2023/07/17 06:46:29;;;;;;;17.70;8.85;;;;;;;;;;5009508;28;20435;-74
2023/07/17 06:48:55;;;;;;;20.98;9.40;;;;;;;;;;5008762;28;20048;-74
2023/07/17 06:51:21;;;;;;;21.70;9.73;;;;;;;;;;4991656;28;20492;-74
2023/07/17 06:53:50;;;;;;;21.15;9.60;;;;;;;;;;5008734;28;20138;-74
2023/07/17 06:56:16;;;;;;;20.77;9.75;;;;;;;;;;5008565;28;20448;-74
2023/07/17 06:58:42;;;;;;;20.10;8.60;;;;;;;;;;5009001;28;20064;-74
2023/07/17 07:01:08;;;;;;;19.08;9.25;;;;;;;;;;5008807;28;20064;-72
2023/07/17 07:03:34;;;;;;;15.98;7.03;;;;;;;;;;5008567;28;20037;-75
2023/07/17 07:06:01;;;;;;;17.63;8.02;;;;;;;;;;5008743;28;20029;-74
2023/07/17 07:08:28;;;;;;;19.63;7.90;;;;;;;;;;5009318;28;20026;-73
2023/07/17 07:10:55;;;;;;;17.35;9.30;;;;;;;;;;5012189;28;20030;-76
2023/07/17 07:13:21;;;;;;;16.42;9.13;;;;;;;;;;5010242;28;20053;-72
2023/07/17 07:15:47;;;;;;;22.30;9.50;;;;;;;;;;5010341;28;20065;-74
2023/07/17 07:18:13;;;;;;;18.90;7.22;;;;;;;;;;5010367;28;20353;-72
2023/07/17 07:20:40;;;;;;;17.00;7.93;;;;;;;;;;5010403;28;20091;-77
2023/07/17 07:23:06;;;;;;;14.75;6.93;;;;;;;;;;5009870;28;20025;-74
2023/07/17 07:25:34;;;;;;;13.88;7.50;;;;;;;;;;5009957;28;20026;-74
2023/07/17 07:28:01;;;;;;;13.05;6.70;;;;;;;;;;5011190;28;20093;-73
2023/07/17 07:30:28;;;;;;;14.27;7.10;;;;;;;;;;4994750;28;20484;-74
2023/07/17 07:32:54;;;;;;;19.70;9.23;;;;;;;;;;5011171;28;20036;-72
2023/07/17 07:35:20;;;;;;;17.85;8.23;;;;;;;;;;5012223;28;20025;-73
2023/07/17 07:37:46;;;;;;;13.27;6.40;;;;;;;;;;5011945;28;20080;-73
2023/07/17 07:40:12;;;;;;;20.65;7.45;;;;;;;;;;5011446;28;20045;-74
2023/07/17 07:42:45;;;;;;;17.42;7.40;;;;;;;;;;5011177;28;20033;-73
2023/07/17 07:45:11;;;;;;;18.60;7.18;;;;;;;;;;4993620;28;20045;-73
2023/07/17 07:47:38;;;;;;;12.30;6.10;;;;;;;;;;5011931;28;20022;-70
2023/07/17 07:50:05;;;;;;;22.38;9.27;;;;;;;;;;5011559;28;20018;-72
2023/07/17 07:52:34;;;;;;;13.80;7.03;;;;;;;;;;5010737;28;20519;-76
2023/07/17 07:55:00;;;;;;;18.20;7.88;;;;;;;;;;5011537;28;20033;-74
2023/07/17 07:57:26;;;;;;;13.27;6.82;;;;;;;;;;4993836;28;20022;-72
2023/07/17 07:59:55;;;;;;;21.15;7.07;;;;;;;;;;5010871;28;20030;-73
2023/07/17 08:02:23;;;;;;;13.75;5.80;;;;;;;;;;5011820;28;20061;-72
2023/07/17 08:04:50;;;;;;;9.80;5.03;;;;;;;;;;5011087;28;20018;-73
2023/07/17 08:07:16;;;;;;;12.07;5.25;;;;;;;;;;5010928;28;20104;-76
2023/07/17 08:09:42;;;;;;;11.57;5.55;;;;;;;;;;4993913;28;20374;-74
2023/07/17 08:12:08;;;;;;;11.95;5.43;;;;;;;;;;5010603;28;20104;-76
2023/07/17 08:14:34;;;;;;;11.48;5.25;;;;;;;;;;5010821;28;20042;-74
2023/07/17 08:17:00;;;;;;;10.30;5.60;;;;;;;;;;5010834;28;20025;-72
2023/07/17 08:19:26;;;;;;;10.80;4.60;;;;;;;;;;5010965;28;20025;-73
2023/07/17 08:21:52;;;;;;;10.98;5.07;;;;;;;;;;5010969;28;20037;-75
2023/07/17 08:24:18;;;;;;;11.77;5.72;;;;;;;;;;5010781;28;20040;-76
2023/07/17 08:26:44;;;;;;;15.50;5.97;;;;;;;;;;5010677;28;20033;-74
2023/07/17 08:29:11;;;;;;;9.80;4.07;;;;;;;;;;4992943;28;20064;-74
2023/07/17 08:31:37;;;;;;;11.13;5.50;;;;;;;;;;5010556;28;20061;-72
2023/07/17 08:34:03;;;;;;;12.50;4.80;;;;;;;;;;5010832;28;20045;-72
2023/07/17 08:36:30;;;;;;;11.82;4.43;;;;;;;;;;5010829;28;20031;-74
2023/07/17 08:38:57;;;;;;;11.85;4.53;;;;;;;;;;5010447;28;20093;-73
2023/07/17 08:41:24;;;;;;;12.35;5.00;;;;;;;;;;4992648;28;20021;-71
2023/07/17 08:43:50;;;;;;;12.00;5.30;;;;;;;;;;5010014;28;20050;-73
2023/07/17 08:46:16;;;;;;;8.57;3.85;;;;;;;;;;5010293;28;20113;-73
2023/07/17 08:48:43;;;;;;;14.35;5.47;;;;;;;;;;5010268;28;20022;-74
2023/07/17 08:51:10;;;;;;;10.93;4.93;;;;;;;;;;5010052;28;20046;-74
2023/07/17 08:53:37;;;;;;;12.52;4.95;;;;;;;;;;5010275;28;20022;-74
2023/07/17 08:56:04;;;;;;;9.35;4.18;;;;;;;;;;5009781;28;20080;-73
2023/07/17 08:58:31;;;;;;;11.27;4.10;;;;;;;;;;5010128;28;20022;-74
2023/07/17 09:00:57;;;;;;;10.82;3.97;;;;;;;;;;5009830;28;20022;-74
2023/07/17 09:03:24;;;;;;;8.70;4.55;;;;;;;;;;5010100;28;20030;-74
2023/07/17 09:05:50;;;;;;;12.77;5.30;;;;;;;;;;5009889;28;20062;-73
2023/07/17 09:08:16;;;;;;;12.07;4.05;;;;;;;;;;5010700;28;20038;-73
2023/07/17 09:10:42;;;;;;;9.90;3.75;;;;;;;;;;5010232;28;20068;-73
2023/07/17 09:13:09;;;;;;;13.77;4.57;;;;;;;;;;5009210;28;20438;-74
2023/07/17 09:15:35;;;;;;;7.47;3.45;;;;;;;;;;5009969;28;20052;-73
2023/07/17 09:18:02;;;;;;;11.32;4.28;;;;;;;;;;5009957;28;20018;-73
2023/07/17 09:20:28;;;;;;;9.88;3.85;;;;;;;;;;5010245;28;20026;-71
2023/07/17 09:23:01;;;;;;;9.77;4.25;;;;;;;;;;5009673;28;20391;-72
2023/07/17 09:25:27;;;;;;;9.55;3.95;;;;;;;;;;5008932;28;20026;-72
2023/07/17 09:27:54;;;;;;;10.88;4.35;;;;;;;;;;5009714;28;20380;-72
2023/07/17 09:30:22;;;;;;;12.35;4.03;;;;;;;;;;5009685;28;20030;-73
2023/07/17 09:32:49;;;;;;;11.30;3.28;;;;;;;;;;5008357;28;20034;-72
2023/07/17 09:35:18;;;;;;;10.18;3.95;;;;;;;;;;5009283;28;20022;-76
2023/07/17 09:37:44;;;;;;;7.10;3.20;;;;;;;;;;4992241;28;20434;-77
2023/07/17 09:40:11;;;;;;;11.45;3.67;;;;;;;;;;5009058;28;20022;-73
2023/07/17 09:42:42;;;;;;;9.32;3.20;;;;;;;;;;5009521;28;20117;-75
2023/07/17 09:45:14;;;;;;;9.65;3.67;;;;;;;;;;5009100;28;20467;-75
2023/07/17 09:47:41;;;;;;;7.35;2.60;;;;;;;;;;5009030;28;20030;-73
2023/07/17 09:50:08;;;;;;;10.20;4.00;;;;;;;;;;5009721;28;20037;-73
2023/07/17 09:52:34;;;;;;;7.97;2.97;;;;;;;;;;5009235;28;20041;-76
2023/07/17 09:55:00;;;;;;;8.43;3.10;;;;;;;;;;5009081;28;20029;-75
2023/07/17 09:57:28;;;;;;;9.05;3.10;;;;;;;;;;5009392;28;20030;-77
2023/07/17 09:59:57;;;;;;;6.97;3.20;;;;;;;;;;5012622;28;20109;-81
2023/07/17 10:02:27;;;;;;;9.88;2.95;;;;;;;;;;5014414;28;20333;-77
2023/07/17 10:04:54;;;;;;;9.73;3.15;;;;;;;;;;5011590;28;20057;-78
2023/07/17 10:07:20;;;;;;;9.43;3.42;;;;;;;;;;5008910;28;20105;-76
2023/07/17 10:09:48;;;;;;;8.32;3.47;;;;;;;;;;5009313;28;20101;-77
2023/07/17 10:12:15;;;;;;;10.98;3.58;;;;;;;;;;5009614;28;20029;-74
2023/07/17 10:14:42;;;;;;;10.07;3.15;;;;;;;;;;5008587;28;20038;-74
2023/07/17 10:17:24;;;;;;;8.77;3.55;;;;;;;;;;5009324;28;20030;-76
2023/07/17 10:19:50;;;;;;;8.57;2.78;;;;;;;;;;5009003;28;20026;-74
2023/07/17 10:22:16;;;;;;;10.95;3.17;;;;;;;;;;5009398;28;20022;-75
2023/07/17 10:24:43;;;;;;;7.90;3.38;;;;;;;;;;5009144;28;20041;-76
2023/07/17 10:27:09;;;;;;;7.10;2.85;;;;;;;;;;5008616;28;20034;-76
2023/07/17 10:29:44;;;;;;;10.15;2.97;;;;;;;;;;5010071;28;20030;-76
2023/07/17 10:32:11;;;;;;;10.90;4.28;;;;;;;;;;5010541;28;20031;-75
2023/07/17 10:34:52;;;;;;;9.52;3.70;;;;;;;;;;5010001;28;20598;-75
2023/07/17 10:37:19;;;;;;;8.07;2.95;;;;;;;;;;4993465;28;20596;-76
2023/07/17 10:39:46;;;;;;;8.10;3.67;;;;;;;;;;4992474;28;20029;-74
2023/07/17 10:42:12;;;;;;;8.23;3.38;;;;;;;;;;5008814;28;20037;-75
2023/07/17 10:44:38;;;;;;;4.40;1.70;;;;;;;;;;5011470;28;20134;-75
2023/07/17 10:47:04;;;;;;;9.00;1.95;;;;;;;;;;5012321;28;20049;-76
2023/07/17 10:49:30;;;;;;;6.50;2.05;;;;;;;;;;5012879;28;20104;-76
2023/07/17 10:51:56;;;;;;;6.88;2.30;;;;;;;;;;5013177;28;20036;-75
2023/07/17 10:54:24;;;;;;;5.10;1.92;;;;;;;;;;5012040;28;20037;-76
2023/07/17 10:56:53;;;;;;;1.92;1.15;;;;;;;;;;5012653;28;20502;-75
2023/07/17 10:59:19;;;;;;;6.23;1.93;;;;;;;;;;5012225;28;20029;-76
2023/07/17 11:01:46;;;;;;;6.47;1.65;;;;;;;;;;5012812;28;20026;-75
2023/07/17 11:04:12;;;;;;;4.30;1.42;;;;;;;;;;5012436;28;20154;-75
2023/07/17 11:06:38;;;;;;;4.25;1.75;;;;;;;;;;5012656;28;20029;-75
2023/07/17 11:09:04;;;;;;;5.40;1.73;;;;;;;;;;5012146;28;20029;-78
2023/07/17 11:11:32;;;;;;;4.55;1.60;;;;;;;;;;5012335;28;20037;-77
2023/07/17 11:13:59;;;;;;;4.70;1.80;;;;;;;;;;5012599;28;20373;-78
2023/07/17 11:16:25;;;;;;;6.10;1.80;;;;;;;;;;5012001;28;20034;-74
2023/07/17 11:18:58;;;;;;;4.78;1.83;;;;;;;;;;5011574;28;20033;-75
2023/07/17 11:21:24;;;;;;;8.35;1.70;;;;;;;;;;5012627;28;20487;-76
2023/07/17 11:23:58;;;;;;;4.70;1.95;;;;;;;;;;4994739;28;20030;-75
2023/07/17 11:26:28;;;;;;;4.93;2.17;;;;;;;;;;5013540;28;20476;-77
2023/07/17 11:28:55;;;;;;;5.78;1.95;;;;;;;;;;5013871;28;20367;-77
2023/07/17 11:31:23;;;;;;;5.57;2.28;;;;;;;;;;5013171;28;20088;-76
2023/07/17 11:33:50;;;;;;;7.05;2.38;;;;;;;;;;5013206;28;20029;-76
2023/07/17 11:36:17;;;;;;;5.68;2.30;;;;;;;;;;5013005;28;20527;-75
2023/07/17 11:38:44;;;;;;;5.78;1.83;;;;;;;;;;4995308;28;20030;-75
2023/07/17 11:41:10;;;;;;;6.10;2.03;;;;;;;;;;5012188;28;20483;-75
2023/07/17 11:43:36;;;;;;;5.15;1.88;;;;;;;;;;5011310;28;20038;-76
2023/07/17 11:46:05;;;;;;;7.30;2.60;;;;;;;;;;5011395;28;20060;-75
2023/07/17 11:48:32;;;;;;;5.50;2.72;;;;;;;;;;5012236;28;20034;-75
2023/07/17 11:50:58;;;;;;;7.47;2.25;;;;;;;;;;5011062;28;20036;-76
2023/07/17 11:53:25;;;;;;;8.13;2.75;;;;;;;;;;5011299;28;20507;-76
2023/07/17 11:55:51;;;;;;;7.35;2.42;;;;;;;;;;5010381;28;20038;-77
2023/07/17 11:58:18;;;;;;;6.72;2.35;;;;;;;;;;5011344;28;20095;-76
2023/07/17 12:00:45;;;;;;;5.78;2.75;;;;;;;;;;5010697;28;20114;-75
2023/07/17 12:03:11;;;;;;;5.82;2.38;;;;;;;;;;5010922;28;20033;-76
2023/07/17 12:05:37;;;;;;;8.50;2.90;;;;;;;;;;5011348;28;20456;-76
2023/07/17 12:08:04;;;;;;;8.65;2.97;;;;;;;;;;5011529;28;20530;-76
2023/07/17 12:10:30;;;;;;;6.72;2.83;;;;;;;;;;5010582;28;20505;-76
2023/07/17 12:12:56;;;;;;;9.45;3.20;;;;;;;;;;5011385;28;20048;-74
2023/07/17 12:15:22;;;;;;;10.35;3.78;;;;;;;;;;5010835;28;20034;-75
2023/07/17 12:17:49;;;;;;;8.63;4.20;;;;;;;;;;4993371;28;20049;-75
2023/07/17 12:20:15;;;;;;;11.13;3.53;;;;;;;;;;5011179;28;20057;-76
2023/07/17 12:22:42;;;;;;;8.73;3.55;;;;;;;;;;5009514;28;20113;-73
2023/07/17 12:25:08;;;;;;;7.60;2.90;;;;;;;;;;5010812;28;20080;-74
2023/07/17 12:27:34;;;;;;;10.73;4.15;;;;;;;;;;5010623;28;20076;-75
2023/07/17 12:30:00;;;;;;;7.82;3.28;;;;;;;;;;5010861;28;20022;-74
2023/07/17 12:32:26;;;;;;;11.10;4.40;;;;;;;;;;5011071;28;20026;-76
2023/07/17 12:34:52;;;;;;;10.88;4.63;;;;;;;;;;5010298;28;20113;-75
2023/07/17 12:37:18;;;;;;;8.00;3.58;;;;;;;;;;5010189;28;20037;-73
2023/07/17 12:39:44;;;;;;;7.70;3.47;;;;;;;;;;5010506;28;20092;-75
2023/07/17 12:42:11;;;;;;;7.57;3.10;;;;;;;;;;5010825;28;20120;-74
2023/07/17 12:44:37;;;;;;;9.55;4.07;;;;;;;;;;5010680;28;20054;-74
2023/07/17 12:47:03;;;;;;;6.45;3.05;;;;;;;;;;4992670;28;20384;-74
2023/07/17 12:49:29;;;;;;;7.75;3.10;;;;;;;;;;4993101;28;20033;-74
2023/07/17 12:51:55;;;;;;;8.82;3.60;;;;;;;;;;5010141;28;20026;-74
2023/07/17 12:54:21;;;;;;;9.32;4.22;;;;;;;;;;5009992;28;20595;-74
2023/07/17 12:56:50;;;;;;;6.22;3.05;;;;;;;;;;4992422;28;20026;-74
2023/07/17 12:59:17;;;;;;;7.82;4.10;;;;;;;;;;5010401;28;20022;-74
2023/07/17 13:01:46;;;;;;;6.82;2.92;;;;;;;;;;5010744;28;20038;-74
2023/07/17 13:04:15;;;;;;;11.32;4.38;;;;;;;;;;5010254;28;20049;-73
2023/07/17 13:06:41;;;;;;;7.88;3.50;;;;;;;;;;5009425;28;20028;-73
2023/07/17 13:09:10;;;;;;;12.27;3.92;;;;;;;;;;5010360;28;20077;-72
2023/07/17 13:11:38;;;;;;;8.85;4.22;;;;;;;;;;5010256;28;20025;-73
2023/07/17 13:14:04;;;;;;;9.48;4.60;;;;;;;;;;4991527;28;20034;-76
2023/07/17 13:16:30;;;;;;;10.00;4.32;;;;;;;;;;5010541;28;20057;-74
2023/07/17 13:18:57;;;;;;;9.93;3.72;;;;;;;;;;5010577;28;20373;-75
2023/07/17 13:21:25;;;;;;;7.32;3.20;;;;;;;;;;5012702;28;20072;-76
2023/07/17 13:23:51;;;;;;;10.50;4.32;;;;;;;;;;5010309;28;20025;-74
2023/07/17 13:26:26;;;;;;;13.00;5.18;;;;;;;;;;5009700;28;20360;-73
2023/07/17 13:28:52;;;;;;;10.55;5.22;;;;;;;;;;5009856;28;20026;-75
2023/07/17 13:31:18;;;;;;;9.35;4.00;;;;;;;;;;5009436;28;20028;-74
2023/07/17 13:33:44;;;;;;;10.75;4.43;;;;;;;;;;5009941;28;20033;-73
2023/07/17 13:36:11;;;;;;;8.30;4.15;;;;;;;;;;5010129;28;20029;-74
2023/07/17 13:38:37;;;;;;;10.20;4.22;;;;;;;;;;5010282;28;20468;-73
2023/07/17 13:41:10;;;;;;;8.10;4.07;;;;;;;;;;5009205;28;20034;-74
2023/07/17 13:43:36;;;;;;;7.93;4.28;;;;;;;;;;5009155;28;20635;-74
2023/07/17 13:46:03;;;;;;;7.25;3.33;;;;;;;;;;5009424;28;20092;-74
2023/07/17 13:48:29;;;;;;;9.18;4.57;;;;;;;;;;5009804;28;20034;-74
2023/07/17 13:50:55;;;;;;;11.48;4.63;;;;;;;;;;5009821;28;20136;-73
2023/07/17 13:53:21;;;;;;;5.80;3.20;;;;;;;;;;5009540;28;20025;-74
2023/07/17 13:55:47;;;;;;;8.75;3.53;;;;;;;;;;5009754;28;20064;-74
2023/07/17 13:58:13;;;;;;;6.97;3.25;;;;;;;;;;5009575;28;20055;-74
2023/07/17 14:00:39;;;;;;;9.52;3.42;;;;;;;;;;5009378;28;20053;-74
2023/07/17 14:03:06;;;;;;;9.15;4.13;;;;;;;;;;5009160;28;20065;-73
2023/07/17 14:05:32;;;;;;;6.65;2.67;;;;;;;;;;5009909;28;20034;-74
2023/07/17 14:07:58;;;;;;;6.72;2.90;;;;;;;;;;5009395;28;20034;-73
2023/07/17 14:10:26;;;;;;;6.05;2.83;;;;;;;;;;5009445;28;20025;-73
2023/07/17 14:12:52;;;;;;;9.38;3.95;;;;;;;;;;5009550;28;20033;-73
2023/07/17 14:15:18;;;;;;;7.10;2.70;;;;;;;;;;5009406;28;20032;-73
2023/07/17 14:17:44;;;;;;;7.90;3.50;;;;;;;;;;5009030;28;20026;-74
2023/07/17 14:20:13;;;;;;;6.05;3.15;;;;;;;;;;5012809;28;20037;-74
2023/07/17 14:22:39;;;;;;;5.70;2.60;;;;;;;;;;5013881;28;20034;-75
2023/07/17 14:25:05;;;;;;;5.95;2.67;;;;;;;;;;5013640;28;20034;-74
2023/07/17 14:27:31;;;;;;;5.45;2.80;;;;;;;;;;5013551;28;20507;-73
2023/07/17 14:29:57;;;;;;;7.18;3.22;;;;;;;;;;5012750;28;20456;-73
2023/07/17 14:32:23;;;;;;;6.07;3.13;;;;;;;;;;5013190;28;20484;-74